sensor_id;sensor_type;location;lat;lon;timestamp;P1;durP1;ratioP1;P2;durP2;ratioP2
49440;SDS011;35317;51.978;6.296;2023-04-07T00:00:13;17.10;;;9.50;;
49440;SDS011;35317;51.978;6.296;2023-04-07T00:05:15;14.60;;;8.30;;
49440;SDS011;35317;51.978;6.296;2023-04-07T00:10:15;16.33;;;9.43;;
49440;SDS011;35317;51.978;6.296;2023-04-07T00:15:16;16.55;;;8.77;;
49440;SDS011;35317;51.978;6.296;2023-04-07T00:20:17;16.52;;;9.57;;
49440;SDS011;35317;51.978;6.296;2023-04-07T00:25:18;19.77;;;9.75;;
49440;SDS011;35317;51.978;6.296;2023-04-07T00:30:19;16.15;;;9.55;;
49440;SDS011;35317;51.978;6.296;2023-04-07T00:35:20;18.48;;;9.13;;
49440;SDS011;35317;51.978;6.296;2023-04-07T00:40:21;18.35;;;9.93;;
49440;SDS011;35317;51.978;6.296;2023-04-07T00:45:22;18.92;;;9.88;;
49440;SDS011;35317;51.978;6.296;2023-04-07T00:50:22;19.42;;;10.05;;
49440;SDS011;35317;51.978;6.296;2023-04-07T00:55:23;18.83;;;10.48;;
49440;SDS011;35317;51.978;6.296;2023-04-07T01:00:25;18.88;;;10.07;;
49440;SDS011;35317;51.978;6.296;2023-04-07T01:05:45;26.27;;;10.88;;
49440;SDS011;35317;51.978;6.296;2023-04-07T01:10:55;24.75;;;11.27;;
49440;SDS011;35317;51.978;6.296;2023-04-07T01:16:04;26.75;;;11.75;;
49440;SDS011;35317;51.978;6.296;2023-04-07T01:21:13;28.13;;;12.63;;
49440;SDS011;35317;51.978;6.296;2023-04-07T01:26:25;27.15;;;12.48;;
49440;SDS011;35317;51.978;6.296;2023-04-07T01:31:29;28.35;;;12.98;;
49440;SDS011;35317;51.978;6.296;2023-04-07T01:36:30;26.58;;;12.95;;
49440;SDS011;35317;51.978;6.296;2023-04-07T01:41:32;32.75;;;12.73;;
49440;SDS011;35317;51.978;6.296;2023-04-07T01:46:34;27.55;;;13.63;;
49440;SDS011;35317;51.978;6.296;2023-04-07T01:51:35;28.45;;;12.35;;
49440;SDS011;35317;51.978;6.296;2023-04-07T01:56:36;28.88;;;13.23;;
49440;SDS011;35317;51.978;6.296;2023-04-07T02:01:37;26.63;;;12.23;;
49440;SDS011;35317;51.978;6.296;2023-04-07T02:06:41;22.70;;;10.90;;
49440;SDS011;35317;51.978;6.296;2023-04-07T02:11:48;24.80;;;11.43;;
49440;SDS011;35317;51.978;6.296;2023-04-07T02:16:51;19.98;;;10.20;;
49440;SDS011;35317;51.978;6.296;2023-04-07T02:21:53;23.10;;;9.95;;
49440;SDS011;35317;51.978;6.296;2023-04-07T02:26:54;18.92;;;9.27;;
49440;SDS011;35317;51.978;6.296;2023-04-07T02:31:55;19.75;;;9.07;;
49440;SDS011;35317;51.978;6.296;2023-04-07T02:36:56;18.25;;;7.88;;
49440;SDS011;35317;51.978;6.296;2023-04-07T02:41:57;17.35;;;7.70;;
49440;SDS011;35317;51.978;6.296;2023-04-07T02:46:57;16.35;;;7.28;;
49440;SDS011;35317;51.978;6.296;2023-04-07T02:51:58;17.02;;;7.00;;
49440;SDS011;35317;51.978;6.296;2023-04-07T02:56:59;9.25;;;4.88;;
49440;SDS011;35317;51.978;6.296;2023-04-07T03:02:00;8.00;;;3.78;;
49440;SDS011;35317;51.978;6.296;2023-04-07T03:07:01;7.38;;;3.47;;
49440;SDS011;35317;51.978;6.296;2023-04-07T03:12:02;6.70;;;3.38;;
49440;SDS011;35317;51.978;6.296;2023-04-07T03:17:03;5.45;;;2.85;;
49440;SDS011;35317;51.978;6.296;2023-04-07T03:22:04;9.07;;;3.55;;
49440;SDS011;35317;51.978;6.296;2023-04-07T03:27:04;6.90;;;3.35;;
49440;SDS011;35317;51.978;6.296;2023-04-07T03:32:05;6.03;;;3.08;;
49440;SDS011;35317;51.978;6.296;2023-04-07T03:37:06;7.07;;;3.05;;
49440;SDS011;35317;51.978;6.296;2023-04-07T03:42:07;8.93;;;3.20;;
49440;SDS011;35317;51.978;6.296;2023-04-07T03:47:07;5.97;;;3.22;;
49440;SDS011;35317;51.978;6.296;2023-04-07T03:52:08;5.15;;;2.90;;
49440;SDS011;35317;51.978;6.296;2023-04-07T03:57:09;5.68;;;2.92;;
49440;SDS011;35317;51.978;6.296;2023-04-07T04:02:10;5.63;;;2.78;;
49440;SDS011;35317;51.978;6.296;2023-04-07T04:07:11;8.18;;;3.40;;
49440;SDS011;35317;51.978;6.296;2023-04-07T04:12:11;11.88;;;4.20;;
49440;SDS011;35317;51.978;6.296;2023-04-07T04:17:12;7.15;;;3.33;;
49440;SDS011;35317;51.978;6.296;2023-04-07T04:22:13;7.55;;;3.50;;
49440;SDS011;35317;51.978;6.296;2023-04-07T04:27:14;11.45;;;3.38;;
49440;SDS011;35317;51.978;6.296;2023-04-07T04:32:15;7.35;;;3.42;;
49440;SDS011;35317;51.978;6.296;2023-04-07T04:37:16;7.15;;;3.30;;
49440;SDS011;35317;51.978;6.296;2023-04-07T04:42:17;9.70;;;3.95;;
49440;SDS011;35317;51.978;6.296;2023-04-07T04:47:18;10.32;;;3.47;;
49440;SDS011;35317;51.978;6.296;2023-04-07T04:52:19;7.72;;;3.67;;
49440;SDS011;35317;51.978;6.296;2023-04-07T04:57:20;9.23;;;4.85;;
49440;SDS011;35317;51.978;6.296;2023-04-07T05:02:21;10.15;;;4.50;;
49440;SDS011;35317;51.978;6.296;2023-04-07T05:07:22;9.93;;;4.20;;
49440;SDS011;35317;51.978;6.296;2023-04-07T05:12:23;9.82;;;4.55;;
49440;SDS011;35317;51.978;6.296;2023-04-07T05:17:24;7.43;;;4.07;;
49440;SDS011;35317;51.978;6.296;2023-04-07T05:22:24;8.60;;;3.95;;
49440;SDS011;35317;51.978;6.296;2023-04-07T05:27:25;10.30;;;3.90;;
49440;SDS011;35317;51.978;6.296;2023-04-07T05:32:26;10.48;;;3.67;;
49440;SDS011;35317;51.978;6.296;2023-04-07T05:37:28;8.38;;;3.88;;
49440;SDS011;35317;51.978;6.296;2023-04-07T05:42:29;6.40;;;3.42;;
49440;SDS011;35317;51.978;6.296;2023-04-07T05:47:30;8.75;;;3.83;;
49440;SDS011;35317;51.978;6.296;2023-04-07T05:52:31;8.35;;;3.50;;
49440;SDS011;35317;51.978;6.296;2023-04-07T05:57:31;7.75;;;3.80;;
49440;SDS011;35317;51.978;6.296;2023-04-07T06:02:33;11.98;;;4.28;;
49440;SDS011;35317;51.978;6.296;2023-04-07T06:07:34;11.70;;;3.90;;
49440;SDS011;35317;51.978;6.296;2023-04-07T06:12:35;11.57;;;4.20;;
49440;SDS011;35317;51.978;6.296;2023-04-07T06:17:36;9.57;;;4.03;;
49440;SDS011;35317;51.978;6.296;2023-04-07T06:22:37;11.23;;;4.07;;
49440;SDS011;35317;51.978;6.296;2023-04-07T06:27:38;10.90;;;4.30;;
49440;SDS011;35317;51.978;6.296;2023-04-07T06:32:39;9.82;;;3.97;;
49440;SDS011;35317;51.978;6.296;2023-04-07T06:37:40;10.35;;;4.30;;
49440;SDS011;35317;51.978;6.296;2023-04-07T06:42:41;9.77;;;4.63;;
49440;SDS011;35317;51.978;6.296;2023-04-07T06:47:42;9.27;;;4.13;;
49440;SDS011;35317;51.978;6.296;2023-04-07T06:52:42;10.52;;;4.50;;
49440;SDS011;35317;51.978;6.296;2023-04-07T06:57:43;9.00;;;4.70;;
49440;SDS011;35317;51.978;6.296;2023-04-07T07:02:44;8.85;;;4.40;;
49440;SDS011;35317;51.978;6.296;2023-04-07T07:07:45;7.68;;;3.75;;
49440;SDS011;35317;51.978;6.296;2023-04-07T07:12:45;8.77;;;3.63;;
49440;SDS011;35317;51.978;6.296;2023-04-07T07:17:46;10.55;;;4.55;;
49440;SDS011;35317;51.978;6.296;2023-04-07T07:22:47;10.55;;;4.47;;
49440;SDS011;35317;51.978;6.296;2023-04-07T07:27:48;8.90;;;4.10;;
49440;SDS011;35317;51.978;6.296;2023-04-07T07:32:52;9.30;;;4.85;;
49440;SDS011;35317;51.978;6.296;2023-04-07T07:37:54;8.70;;;4.22;;
49440;SDS011;35317;51.978;6.296;2023-04-07T07:42:55;9.35;;;3.92;;
49440;SDS011;35317;51.978;6.296;2023-04-07T07:47:56;8.18;;;3.83;;
49440;SDS011;35317;51.978;6.296;2023-04-07T07:52:56;9.68;;;3.83;;
49440;SDS011;35317;51.978;6.296;2023-04-07T07:57:57;8.98;;;4.65;;
49440;SDS011;35317;51.978;6.296;2023-04-07T08:02:58;8.85;;;4.35;;
49440;SDS011;35317;51.978;6.296;2023-04-07T08:07:59;10.68;;;5.15;;
49440;SDS011;35317;51.978;6.296;2023-04-07T08:13:00;8.55;;;3.60;;
49440;SDS011;35317;51.978;6.296;2023-04-07T08:18:01;6.32;;;3.10;;
49440;SDS011;35317;51.978;6.296;2023-04-07T08:23:05;4.95;;;2.78;;
49440;SDS011;35317;51.978;6.296;2023-04-07T08:28:06;6.20;;;3.28;;
49440;SDS011;35317;51.978;6.296;2023-04-07T08:33:06;5.88;;;3.05;;
49440;SDS011;35317;51.978;6.296;2023-04-07T08:38:07;4.70;;;2.63;;
49440;SDS011;35317;51.978;6.296;2023-04-07T08:43:08;4.38;;;2.47;;
49440;SDS011;35317;51.978;6.296;2023-04-07T08:48:16;6.30;;;2.88;;
49440;SDS011;35317;51.978;6.296;2023-04-07T08:53:18;4.40;;;2.58;;
49440;SDS011;35317;51.978;6.296;2023-04-07T08:58:27;4.50;;;2.70;;
49440;SDS011;35317;51.978;6.296;2023-04-07T09:03:29;3.17;;;2.08;;
49440;SDS011;35317;51.978;6.296;2023-04-07T09:08:31;5.65;;;2.20;;
49440;SDS011;35317;51.978;6.296;2023-04-07T09:13:32;4.65;;;2.70;;
49440;SDS011;35317;51.978;6.296;2023-04-07T09:18:33;4.47;;;2.20;;
49440;SDS011;35317;51.978;6.296;2023-04-07T09:23:35;4.50;;;2.38;;
49440;SDS011;35317;51.978;6.296;2023-04-07T09:28:41;3.88;;;2.10;;
49440;SDS011;35317;51.978;6.296;2023-04-07T09:33:43;5.80;;;2.38;;
49440;SDS011;35317;51.978;6.296;2023-04-07T09:38:44;4.40;;;2.42;;
49440;SDS011;35317;51.978;6.296;2023-04-07T09:43:45;5.03;;;2.55;;
49440;SDS011;35317;51.978;6.296;2023-04-07T09:48:46;4.22;;;2.55;;
49440;SDS011;35317;51.978;6.296;2023-04-07T09:53:48;5.03;;;2.72;;
49440;SDS011;35317;51.978;6.296;2023-04-07T09:58:50;4.85;;;2.47;;
49440;SDS011;35317;51.978;6.296;2023-04-07T10:03:51;5.50;;;3.20;;
49440;SDS011;35317;51.978;6.296;2023-04-07T10:08:52;4.32;;;2.67;;
49440;SDS011;35317;51.978;6.296;2023-04-07T10:13:53;6.97;;;3.28;;
49440;SDS011;35317;51.978;6.296;2023-04-07T10:18:54;4.43;;;2.40;;
49440;SDS011;35317;51.978;6.296;2023-04-07T10:23:57;3.65;;;1.92;;
49440;SDS011;35317;51.978;6.296;2023-04-07T10:29:19;3.33;;;2.20;;
49440;SDS011;35317;51.978;6.296;2023-04-07T10:45:51;2.72;;;1.98;;
49440;SDS011;35317;51.978;6.296;2023-04-07T10:56:06;3.60;;;1.95;;
49440;SDS011;35317;51.978;6.296;2023-04-07T11:06:11;2.65;;;1.45;;
49440;SDS011;35317;51.978;6.296;2023-04-07T11:11:14;1.75;;;1.20;;
49440;SDS011;35317;51.978;6.296;2023-04-07T11:16:20;1.42;;;0.98;;
49440;SDS011;35317;51.978;6.296;2023-04-07T11:21:36;1.05;;;0.80;;
49440;SDS011;35317;51.978;6.296;2023-04-07T11:26:37;2.17;;;1.10;;
49440;SDS011;35317;51.978;6.296;2023-04-07T11:31:39;1.05;;;0.88;;
49440;SDS011;35317;51.978;6.296;2023-04-07T11:36:47;1.35;;;1.02;;
49440;SDS011;35317;51.978;6.296;2023-04-07T11:41:48;1.40;;;1.15;;
49440;SDS011;35317;51.978;6.296;2023-04-07T11:46:53;1.20;;;0.88;;
49440;SDS011;35317;51.978;6.296;2023-04-07T11:51:59;1.40;;;1.10;;
49440;SDS011;35317;51.978;6.296;2023-04-07T11:57:07;1.63;;;1.20;;
49440;SDS011;35317;51.978;6.296;2023-04-07T12:02:11;1.88;;;1.45;;
49440;SDS011;35317;51.978;6.296;2023-04-07T12:07:33;1.58;;;1.20;;
49440;SDS011;35317;51.978;6.296;2023-04-07T12:12:38;1.73;;;1.30;;
49440;SDS011;35317;51.978;6.296;2023-04-07T12:17:43;1.58;;;1.23;;
49440;SDS011;35317;51.978;6.296;2023-04-07T12:22:46;1.30;;;1.00;;
49440;SDS011;35317;51.978;6.296;2023-04-07T12:27:47;0.77;;;0.70;;
49440;SDS011;35317;51.978;6.296;2023-04-07T12:32:47;1.67;;;1.25;;
49440;SDS011;35317;51.978;6.296;2023-04-07T12:37:48;1.90;;;1.25;;
49440;SDS011;35317;51.978;6.296;2023-04-07T12:42:50;1.55;;;1.30;;
49440;SDS011;35317;51.978;6.296;2023-04-07T12:47:51;2.00;;;1.17;;
49440;SDS011;35317;51.978;6.296;2023-04-07T12:52:52;2.20;;;1.23;;
49440;SDS011;35317;51.978;6.296;2023-04-07T12:57:53;1.50;;;1.15;;
49440;SDS011;35317;51.978;6.296;2023-04-07T13:02:54;2.33;;;1.50;;
49440;SDS011;35317;51.978;6.296;2023-04-07T13:07:55;2.15;;;1.63;;
49440;SDS011;35317;51.978;6.296;2023-04-07T13:12:56;2.28;;;1.65;;
49440;SDS011;35317;51.978;6.296;2023-04-07T13:17:57;2.10;;;1.30;;
49440;SDS011;35317;51.978;6.296;2023-04-07T13:22:58;3.55;;;1.20;;
49440;SDS011;35317;51.978;6.296;2023-04-07T13:27:58;1.33;;;1.00;;
49440;SDS011;35317;51.978;6.296;2023-04-07T13:32:59;1.30;;;0.90;;
49440;SDS011;35317;51.978;6.296;2023-04-07T13:38:01;1.80;;;1.20;;
49440;SDS011;35317;51.978;6.296;2023-04-07T13:43:02;2.70;;;1.50;;
49440;SDS011;35317;51.978;6.296;2023-04-07T13:48:03;3.47;;;1.40;;
49440;SDS011;35317;51.978;6.296;2023-04-07T13:53:04;3.85;;;1.55;;
49440;SDS011;35317;51.978;6.296;2023-04-07T13:58:05;3.97;;;2.30;;
49440;SDS011;35317;51.978;6.296;2023-04-07T14:03:06;3.28;;;2.03;;
49440;SDS011;35317;51.978;6.296;2023-04-07T14:08:07;3.47;;;1.70;;
49440;SDS011;35317;51.978;6.296;2023-04-07T14:13:08;4.28;;;2.10;;
49440;SDS011;35317;51.978;6.296;2023-04-07T14:18:09;4.07;;;2.58;;
49440;SDS011;35317;51.978;6.296;2023-04-07T14:23:10;4.05;;;2.58;;
49440;SDS011;35317;51.978;6.296;2023-04-07T14:28:11;5.22;;;3.40;;
49440;SDS011;35317;51.978;6.296;2023-04-07T14:33:12;5.00;;;3.55;;
49440;SDS011;35317;51.978;6.296;2023-04-07T14:38:13;7.63;;;4.57;;
49440;SDS011;35317;51.978;6.296;2023-04-07T14:43:14;6.75;;;4.53;;
49440;SDS011;35317;51.978;6.296;2023-04-07T14:48:14;8.35;;;4.97;;
49440;SDS011;35317;51.978;6.296;2023-04-07T14:53:16;6.72;;;4.43;;
49440;SDS011;35317;51.978;6.296;2023-04-07T14:58:17;5.95;;;3.97;;
49440;SDS011;35317;51.978;6.296;2023-04-07T15:03:17;7.40;;;4.30;;
49440;SDS011;35317;51.978;6.296;2023-04-07T15:08:18;6.00;;;3.90;;
49440;SDS011;35317;51.978;6.296;2023-04-07T15:13:19;6.10;;;4.15;;
49440;SDS011;35317;51.978;6.296;2023-04-07T15:18:20;5.45;;;4.00;;
49440;SDS011;35317;51.978;6.296;2023-04-07T15:23:20;5.43;;;3.78;;
49440;SDS011;35317;51.978;6.296;2023-04-07T15:28:21;8.30;;;4.10;;
49440;SDS011;35317;51.978;6.296;2023-04-07T15:33:22;5.47;;;3.33;;
49440;SDS011;35317;51.978;6.296;2023-04-07T15:38:23;4.65;;;3.42;;
49440;SDS011;35317;51.978;6.296;2023-04-07T15:43:24;6.72;;;3.83;;
49440;SDS011;35317;51.978;6.296;2023-04-07T15:48:25;5.28;;;3.20;;
49440;SDS011;35317;51.978;6.296;2023-04-07T15:53:26;5.40;;;3.70;;
49440;SDS011;35317;51.978;6.296;2023-04-07T15:58:27;5.32;;;3.55;;
49440;SDS011;35317;51.978;6.296;2023-04-07T16:03:27;5.28;;;3.50;;
49440;SDS011;35317;51.978;6.296;2023-04-07T16:08:28;4.78;;;3.42;;
49440;SDS011;35317;51.978;6.296;2023-04-07T16:13:29;6.15;;;3.47;;
49440;SDS011;35317;51.978;6.296;2023-04-07T16:18:30;5.47;;;3.50;;
49440;SDS011;35317;51.978;6.296;2023-04-07T16:23:31;5.68;;;3.78;;
49440;SDS011;35317;51.978;6.296;2023-04-07T16:28:31;5.47;;;3.65;;
49440;SDS011;35317;51.978;6.296;2023-04-07T16:33:32;4.80;;;3.47;;
49440;SDS011;35317;51.978;6.296;2023-04-07T16:38:34;4.70;;;3.28;;
49440;SDS011;35317;51.978;6.296;2023-04-07T16:43:35;5.80;;;3.85;;
49440;SDS011;35317;51.978;6.296;2023-04-07T16:48:36;5.82;;;3.85;;
49440;SDS011;35317;51.978;6.296;2023-04-07T16:53:36;5.22;;;3.30;;
49440;SDS011;35317;51.978;6.296;2023-04-07T16:58:37;5.50;;;3.75;;
49440;SDS011;35317;51.978;6.296;2023-04-07T17:03:38;5.20;;;3.70;;
49440;SDS011;35317;51.978;6.296;2023-04-07T17:08:39;5.75;;;3.72;;
49440;SDS011;35317;51.978;6.296;2023-04-07T17:13:40;9.90;;;5.55;;
49440;SDS011;35317;51.978;6.296;2023-04-07T17:18:41;17.77;;;11.07;;
49440;SDS011;35317;51.978;6.296;2023-04-07T17:23:42;10.68;;;6.95;;
49440;SDS011;35317;51.978;6.296;2023-04-07T17:28:44;8.75;;;5.60;;
49440;SDS011;35317;51.978;6.296;2023-04-07T17:33:45;6.65;;;4.13;;
49440;SDS011;35317;51.978;6.296;2023-04-07T17:38:46;5.90;;;4.03;;
49440;SDS011;35317;51.978;6.296;2023-04-07T17:43:47;6.28;;;4.18;;
49440;SDS011;35317;51.978;6.296;2023-04-07T17:48:48;6.93;;;4.22;;
49440;SDS011;35317;51.978;6.296;2023-04-07T17:53:50;12.23;;;5.20;;
49440;SDS011;35317;51.978;6.296;2023-04-07T17:58:52;7.00;;;4.63;;
49440;SDS011;35317;51.978;6.296;2023-04-07T18:03:56;7.13;;;4.57;;
49440;SDS011;35317;51.978;6.296;2023-04-07T18:08:59;9.20;;;5.20;;
49440;SDS011;35317;51.978;6.296;2023-04-07T18:47:46;8.15;;;5.10;;
49440;SDS011;35317;51.978;6.296;2023-04-07T18:52:55;8.57;;;5.13;;
49440;SDS011;35317;51.978;6.296;2023-04-07T18:57:55;9.70;;;5.47;;
49440;SDS011;35317;51.978;6.296;2023-04-07T19:02:56;10.10;;;5.70;;
49440;SDS011;35317;51.978;6.296;2023-04-07T19:07:57;8.95;;;5.65;;
49440;SDS011;35317;51.978;6.296;2023-04-07T19:12:58;11.18;;;6.53;;
49440;SDS011;35317;51.978;6.296;2023-04-07T19:18:05;12.27;;;7.70;;
49440;SDS011;35317;51.978;6.296;2023-04-07T19:23:09;23.65;;;12.80;;
49440;SDS011;35317;51.978;6.296;2023-04-07T19:28:09;24.00;;;12.80;;
49440;SDS011;35317;51.978;6.296;2023-04-07T19:33:10;15.25;;;9.65;;
49440;SDS011;35317;51.978;6.296;2023-04-07T19:38:11;13.50;;;7.60;;
49440;SDS011;35317;51.978;6.296;2023-04-07T19:43:12;12.18;;;7.38;;
49440;SDS011;35317;51.978;6.296;2023-04-07T19:48:16;14.05;;;7.88;;
49440;SDS011;35317;51.978;6.296;2023-04-07T19:53:18;15.23;;;8.07;;
49440;SDS011;35317;51.978;6.296;2023-04-07T19:58:19;17.48;;;8.82;;
49440;SDS011;35317;51.978;6.296;2023-04-07T20:03:22;15.38;;;8.43;;
49440;SDS011;35317;51.978;6.296;2023-04-07T20:08:24;17.60;;;9.57;;
49440;SDS011;35317;51.978;6.296;2023-04-07T20:13:26;16.90;;;9.48;;
49440;SDS011;35317;51.978;6.296;2023-04-07T20:18:47;16.90;;;8.93;;
49440;SDS011;35317;51.978;6.296;2023-04-07T20:23:48;16.25;;;9.30;;
49440;SDS011;35317;51.978;6.296;2023-04-07T20:28:49;15.43;;;8.68;;
49440;SDS011;35317;51.978;6.296;2023-04-07T20:33:50;16.02;;;9.30;;
49440;SDS011;35317;51.978;6.296;2023-04-07T20:38:52;15.35;;;9.05;;
49440;SDS011;35317;51.978;6.296;2023-04-07T20:43:53;19.23;;;10.02;;
49440;SDS011;35317;51.978;6.296;2023-04-07T20:48:54;21.55;;;10.63;;
49440;SDS011;35317;51.978;6.296;2023-04-07T20:53:55;19.98;;;10.57;;
49440;SDS011;35317;51.978;6.296;2023-04-07T20:58:56;18.83;;;10.52;;
49440;SDS011;35317;51.978;6.296;2023-04-07T21:03:59;16.15;;;9.93;;
49440;SDS011;35317;51.978;6.296;2023-04-07T21:09:02;18.83;;;10.13;;
49440;SDS011;35317;51.978;6.296;2023-04-07T21:14:04;21.70;;;10.98;;
49440;SDS011;35317;51.978;6.296;2023-04-07T21:19:05;21.88;;;10.48;;
49440;SDS011;35317;51.978;6.296;2023-04-07T21:24:07;19.15;;;9.63;;
49440;SDS011;35317;51.978;6.296;2023-04-07T21:29:08;16.33;;;9.27;;
49440;SDS011;35317;51.978;6.296;2023-04-07T21:34:08;16.77;;;9.38;;
49440;SDS011;35317;51.978;6.296;2023-04-07T21:39:09;17.05;;;8.93;;
49440;SDS011;35317;51.978;6.296;2023-04-07T21:44:10;16.30;;;8.88;;
49440;SDS011;35317;51.978;6.296;2023-04-07T21:49:14;13.73;;;7.57;;
49440;SDS011;35317;51.978;6.296;2023-04-07T21:54:18;16.05;;;7.55;;
49440;SDS011;35317;51.978;6.296;2023-04-07T22:05:11;14.65;;;7.70;;
49440;SDS011;35317;51.978;6.296;2023-04-07T22:10:31;22.73;;;9.23;;
49440;SDS011;35317;51.978;6.296;2023-04-07T22:15:32;26.10;;;7.65;;
49440;SDS011;35317;51.978;6.296;2023-04-07T22:20:41;33.88;;;9.40;;
49440;SDS011;35317;51.978;6.296;2023-04-07T22:25:42;29.25;;;8.20;;
49440;SDS011;35317;51.978;6.296;2023-04-07T22:31:03;27.13;;;8.43;;
49440;SDS011;35317;51.978;6.296;2023-04-07T22:36:05;37.20;;;8.82;;
49440;SDS011;35317;51.978;6.296;2023-04-07T22:41:14;20.80;;;7.72;;
49440;SDS011;35317;51.978;6.296;2023-04-07T22:46:15;44.50;;;7.95;;
49440;SDS011;35317;51.978;6.296;2023-04-07T22:51:17;31.30;;;7.85;;
49440;SDS011;35317;51.978;6.296;2023-04-07T22:56:17;38.63;;;7.88;;
49440;SDS011;35317;51.978;6.296;2023-04-07T23:01:18;15.82;;;6.28;;
49440;SDS011;35317;51.978;6.296;2023-04-07T23:06:25;16.55;;;7.53;;
49440;SDS011;35317;51.978;6.296;2023-04-07T23:11:31;12.93;;;6.20;;
49440;SDS011;35317;51.978;6.296;2023-04-07T23:16:32;16.27;;;5.88;;
49440;SDS011;35317;51.978;6.296;2023-04-07T23:21:33;19.08;;;6.00;;
49440;SDS011;35317;51.978;6.296;2023-04-07T23:26:34;24.88;;;7.45;;
49440;SDS011;35317;51.978;6.296;2023-04-07T23:31:34;24.50;;;7.03;;
49440;SDS011;35317;51.978;6.296;2023-04-07T23:36:35;14.98;;;6.80;;
49440;SDS011;35317;51.978;6.296;2023-04-07T23:41:38;15.55;;;6.60;;
49440;SDS011;35317;51.978;6.296;2023-04-07T23:46:40;26.08;;;6.13;;
49440;SDS011;35317;51.978;6.296;2023-04-07T23:51:40;37.53;;;5.97;;
49440;SDS011;35317;51.978;6.296;2023-04-07T23:56:41;27.08;;;6.70;;
